Aérodrome :
LOGIN :

S'inscrire | Disclaimer

   EN    FR    IT 

 










Légende :    VFR   VFR Marginal   IFR   IFR Intensif   IFR Très Intensif
Visi : 
Plafond : 
>= 8 km
>= 3000ft
5 à 8 km
1000 à 3000 ft
1500m à 5 km
500 à 1000 ft
800 à 1500m
200 à 500 ft
< 800m
< 200 ft
Symboles :   Orages  Brouillard  Fortes neiges  Fortes précipitations  Vent > 20 kt
SIGMETs :   Divers  Orages  Givrage  Turbulence  Onde Orograph.  Cendres Volcan.






- Altitude de l'aérodrome : 7 ft
- Code IATA : VCE


LIPZ - Marco Polo Int. Venezia

DERNIER METAR :
  • 240820Z 06004KT CAVOK 20/12 Q1019 NOSIG

METARs EXPIRÉS :
  • 240750Z 07004KT CAVOK 19/12 Q1019 NOSIG
  • 240720Z 06004KT CAVOK 19/13 Q1019 NOSIG
  • 240650Z 03003KT 360V060 CAVOK 18/13 Q1018 NOSIG
  • 240620Z VRB01KT CAVOK 17/14 Q1018 NOSIG
  • 240550Z 11003KT CAVOK 15/12 Q1018 NOSIG
  • 240520Z 13003KT CAVOK 15/12 Q1018 NOSIG

TAF TAF LIPZ
Valide du 24 à 06h jusqu'au 25 à 12h UTC


240500Z 2406/2512 VRB05KT 9999 SCT040
BECMG 2410/2412 16010KT
BECMG 2418/2421 03008KT
BECMG 2510/2512 16010KT



MET'MAP, la Météo Aéronautique d'un coup d'oeil ! - Copyright ORBIFLY Décembre 2007 - Disclaimer

ORBIFLY MET'MAP TEAM :

Programmation & Développement : Alexandra Zaïnal
Sur une idée originale de : Baudouin d'Aumeries
Assistance à la programmation : Marc-Olivier Méhu
Soutien technique & logistique : Manuel Goepfert

Contact : metmap@orbifly.com




SOURCES & CREDITS :

   NOAA